Aviation Digital Data Service (ADDS)

Output produced by METARs form (0216 UTC 22 April 2019)
found at http://www.aviationweather.gov/metar/data/
 
METAR text: KSTL 220151Z 15013KT 10SM FEW250 22/08 A3000 RMK AO2 SLP154 T02220078
Conditions at: KSTL (ST. LOUIS , MO, US) observed 0151 UTC 22 April 2019
Temperature: 22.2°C (72°F)
Dewpoint: 7.8°C (46°F) [RH = 40%]
Pressure (altimeter): 30.00 inches Hg (1016.0 mb)
[Sea-level pressure: 1015.4 mb]
Winds: from the SSE (150 degrees) at 15 MPH (13 knots; 6.7 m/s)
Visibility: 10 or more miles (16+ km)
Ceiling: at least 12,000 feet AGL
Clouds: few clouds at 25000 feet AGL
Weather: no significant weather observed at this time

METAR text: KSTL 220051Z 14015KT 10SM FEW250 23/07 A2998 RMK AO2 SLP145 T02330072
Conditions at: KSTL (ST. LOUIS , MO, US) observed 0051 UTC 22 April 2019
Temperature: 23.3°C (74°F)
Dewpoint: 7.2°C (45°F) [RH = 36%]
Pressure (altimeter): 29.98 inches Hg (1015.3 mb)
[Sea-level pressure: 1014.5 mb]
Winds: from the SE (140 degrees) at 17 MPH (15 knots; 7.7 m/s)
Visibility: 10 or more miles (16+ km)
Ceiling: at least 12,000 feet AGL
Clouds: few clouds at 25000 feet AGL
Weather: no significant weather observed at this time

METAR text: KSTL 212351Z 15017G24KT 10SM FEW250 24/07 A2997 RMK AO2 SLP144 T02440067 10272 20244 55002
Conditions at: KSTL (ST. LOUIS , MO, US) observed 2351 UTC 21 April 2019
Temperature: 24.4°C (76°F)
Dewpoint: 6.7°C (44°F) [RH = 32%]
Pressure (altimeter): 29.97 inches Hg (1015.0 mb)
[Sea-level pressure: 1014.4 mb]
Winds: from the SSE (150 degrees) at 20 MPH (17 knots; 8.7 m/s)
gusting to 28 MPH (24 knots; 12.3 m/s)
Visibility: 10 or more miles (16+ km)
Ceiling: at least 12,000 feet AGL
Clouds: few clouds at 25000 feet AGL
Weather: no significant weather observed at this time

METAR text: KSTL 212251Z 14015KT 10SM SCT250 26/06 A2996 RMK AO2 SLP142 T02560061
Conditions at: KSTL (ST. LOUIS , MO, US) observed 2251 UTC 21 April 2019
Temperature: 25.6°C (78°F)
Dewpoint: 6.1°C (43°F) [RH = 29%]
Pressure (altimeter): 29.96 inches Hg (1014.6 mb)
[Sea-level pressure: 1014.2 mb]
Winds: from the SE (140 degrees) at 17 MPH (15 knots; 7.7 m/s)
Visibility: 10 or more miles (16+ km)
Ceiling: at least 12,000 feet AGL
Clouds: scattered clouds at 25000 feet AGL
Weather: no significant weather observed at this time

METAR text: KSTL 212151Z 14012KT 10SM FEW250 27/06 A2996 RMK AO2 SLP142 T02670056
Conditions at: KSTL (ST. LOUIS , MO, US) observed 2151 UTC 21 April 2019
Temperature: 26.7°C (80°F)
Dewpoint: 5.6°C (42°F) [RH = 26%]
Pressure (altimeter): 29.96 inches Hg (1014.6 mb)
[Sea-level pressure: 1014.2 mb]
Winds: from the SE (140 degrees) at 14 MPH (12 knots; 6.2 m/s)
Visibility: 10 or more miles (16+ km)
Ceiling: at least 12,000 feet AGL
Clouds: few clouds at 25000 feet AGL
Weather: no significant weather observed at this time

METAR text: KSTL 212051Z 14015G21KT 10SM FEW250 27/06 A2997 RMK AO2 SLP144 T02670056 57018
Conditions at: KSTL (ST. LOUIS , MO, US) observed 2051 UTC 21 April 2019
Temperature: 26.7°C (80°F)
Dewpoint: 5.6°C (42°F) [RH = 26%]
Pressure (altimeter): 29.97 inches Hg (1015.0 mb)
[Sea-level pressure: 1014.4 mb]
Winds: from the SE (140 degrees) at 17 MPH (15 knots; 7.7 m/s)
gusting to 24 MPH (21 knots; 10.8 m/s)
Visibility: 10 or more miles (16+ km)
Ceiling: at least 12,000 feet AGL
Clouds: few clouds at 25000 feet AGL
Weather: no significant weather observed at this time

METAR text: KSTL 211951Z 13011KT 10SM FEW250 26/05 A2999 RMK AO2 SLP150 T02610050
Conditions at: KSTL (ST. LOUIS , MO, US) observed 1951 UTC 21 April 2019
Temperature: 26.1°C (79°F)
Dewpoint: 5.0°C (41°F) [RH = 26%]
Pressure (altimeter): 29.99 inches Hg (1015.7 mb)
[Sea-level pressure: 1015.0 mb]
Winds: from the SE (130 degrees) at 13 MPH (11 knots; 5.7 m/s)
Visibility: 10 or more miles (16+ km)
Ceiling: at least 12,000 feet AGL
Clouds: few clouds at 25000 feet AGL
Weather: no significant weather observed at this time

METAR text: KSTL 211851Z 14011G20KT 10SM FEW250 26/05 A3001 RMK AO2 SLP158 T02560050
Conditions at: KSTL (ST. LOUIS , MO, US) observed 1851 UTC 21 April 2019
Temperature: 25.6°C (78°F)
Dewpoint: 5.0°C (41°F) [RH = 27%]
Pressure (altimeter): 30.01 inches Hg (1016.3 mb)
[Sea-level pressure: 1015.8 mb]
Winds: from the SE (140 degrees) at 13 MPH (11 knots; 5.7 m/s)
gusting to 23 MPH (20 knots; 10.3 m/s)
Visibility: 10 or more miles (16+ km)
Ceiling: at least 12,000 feet AGL
Clouds: few clouds at 25000 feet AGL
Weather: no significant weather observed at this time

METAR text: KSTL 211751Z 13011KT 10SM FEW250 24/05 A3002 RMK AO2 SLP163 T02440050 10244 20089 58000
Conditions at: KSTL (ST. LOUIS , MO, US) observed 1751 UTC 21 April 2019
Temperature: 24.4°C (76°F)
Dewpoint: 5.0°C (41°F) [RH = 29%]
Pressure (altimeter): 30.02 inches Hg (1016.7 mb)
[Sea-level pressure: 1016.3 mb]
Winds: from the SE (130 degrees) at 13 MPH (11 knots; 5.7 m/s)
Visibility: 10 or more miles (16+ km)
Ceiling: at least 12,000 feet AGL
Clouds: few clouds at 25000 feet AGL
Weather: no significant weather observed at this time

METAR text: KSTL 211651Z 18010KT 10SM FEW250 23/03 A3004 RMK AO2 SLP168 T02330033
Conditions at: KSTL (ST. LOUIS , MO, US) observed 1651 UTC 21 April 2019
Temperature: 23.3°C (74°F)
Dewpoint: 3.3°C (38°F) [RH = 27%]
Pressure (altimeter): 30.04 inches Hg (1017.4 mb)
[Sea-level pressure: 1016.8 mb]
Winds: from the S (180 degrees) at 12 MPH (10 knots; 5.1 m/s)
Visibility: 10 or more miles (16+ km)
Ceiling: at least 12,000 feet AGL
Clouds: few clouds at 25000 feet AGL
Weather: no significant weather observed at this time

METAR text: KSTL 211551Z 17011KT 10SM FEW250 22/03 A3003 RMK AO2 SLP165 T02170033
Conditions at: KSTL (ST. LOUIS , MO, US) observed 1551 UTC 21 April 2019
Temperature: 21.7°C (71°F)
Dewpoint: 3.3°C (38°F) [RH = 30%]
Pressure (altimeter): 30.03 inches Hg (1017.0 mb)
[Sea-level pressure: 1016.5 mb]
Winds: from the S (170 degrees) at 13 MPH (11 knots; 5.7 m/s)
Visibility: 10 or more miles (16+ km)
Ceiling: at least 12,000 feet AGL
Clouds: few clouds at 25000 feet AGL
Weather: no significant weather observed at this time

METAR text: KSTL 211451Z 17006KT 10SM FEW250 20/02 A3003 RMK AO2 SLP165 T02000022 51014
Conditions at: KSTL (ST. LOUIS , MO, US) observed 1451 UTC 21 April 2019
Temperature: 20.0°C (68°F)
Dewpoint: 2.2°C (36°F) [RH = 31%]
Pressure (altimeter): 30.03 inches Hg (1017.0 mb)
[Sea-level pressure: 1016.5 mb]
Winds: from the S (170 degrees) at 7 MPH (6 knots; 3.1 m/s)
Visibility: 10 or more miles (16+ km)
Ceiling: at least 12,000 feet AGL
Clouds: few clouds at 25000 feet AGL
Weather: no significant weather observed at this time

METAR text: KSTL 211351Z 20008KT 10SM FEW250 17/02 A3002 RMK AO2 SLP163 T01670022
Conditions at: KSTL (ST. LOUIS , MO, US) observed 1351 UTC 21 April 2019
Temperature: 16.7°C (62°F)
Dewpoint: 2.2°C (36°F) [RH = 38%]
Pressure (altimeter): 30.02 inches Hg (1016.7 mb)
[Sea-level pressure: 1016.3 mb]
Winds: from the SSW (200 degrees) at 9 MPH (8 knots; 4.1 m/s)
Visibility: 10 or more miles (16+ km)
Ceiling: at least 12,000 feet AGL
Clouds: few clouds at 25000 feet AGL
Weather: no significant weather observed at this time

METAR text: KSTL 211251Z 00000KT 10SM FEW250 14/01 A3001 RMK AO2 SLP160 T01390006
Conditions at: KSTL (ST. LOUIS , MO, US) observed 1251 UTC 21 April 2019
Temperature: 13.9°C (57°F)
Dewpoint: 0.6°C (33°F) [RH = 40%]
Pressure (altimeter): 30.01 inches Hg (1016.3 mb)
[Sea-level pressure: 1016.0 mb]
Winds: calm
Visibility: 10 or more miles (16+ km)
Ceiling: at least 12,000 feet AGL
Clouds: few clouds at 25000 feet AGL
Weather: no significant weather observed at this time

METAR text: KSTL 211151Z 12003KT 10SM FEW250 09/01 A2999 RMK AO2 SLP153 T00890006 10100 20078 53012
Conditions at: KSTL (ST. LOUIS , MO, US) observed 1151 UTC 21 April 2019
Temperature: 8.9°C (48°F)
Dewpoint: 0.6°C (33°F) [RH = 56%]
Pressure (altimeter): 29.99 inches Hg (1015.7 mb)
[Sea-level pressure: 1015.3 mb]
Winds: from the ESE (120 degrees) at 3 MPH (3 knots; 1.5 m/s)
Visibility: 10 or more miles (16+ km)
Ceiling: at least 12,000 feet AGL
Clouds: few clouds at 25000 feet AGL
Weather: no significant weather observed at this time

METAR text: KSTL 211051Z 00000KT 10SM FEW250 08/02 A2997 RMK AO2 SLP146 T00830017
Conditions at: KSTL (ST. LOUIS , MO, US) observed 1051 UTC 21 April 2019
Temperature: 8.3°C (47°F)
Dewpoint: 1.7°C (35°F) [RH = 63%]
Pressure (altimeter): 29.97 inches Hg (1015.0 mb)
[Sea-level pressure: 1014.6 mb]
Winds: calm
Visibility: 10 or more miles (16+ km)
Ceiling: at least 12,000 feet AGL
Clouds: few clouds at 25000 feet AGL
Weather: no significant weather observed at this time

METAR text: KSTL 210951Z 00000KT 10SM CLR 08/02 A2996 RMK AO2 SLP141 T00830022
Conditions at: KSTL (ST. LOUIS , MO, US) observed 0951 UTC 21 April 2019
Temperature: 8.3°C (47°F)
Dewpoint: 2.2°C (36°F) [RH = 65%]
Pressure (altimeter): 29.96 inches Hg (1014.6 mb)
[Sea-level pressure: 1014.1 mb]
Winds: calm
Visibility: 10 or more miles (16+ km)
Ceiling: at least 12,000 feet AGL
Clouds: sky clear below 12,000 feet AGL
Weather: no significant weather observed at this time

METAR text: KSTL 210851Z 00000KT 10SM CLR 09/02 A2995 RMK AO2 SLP140 T00890022 51006
Conditions at: KSTL (ST. LOUIS , MO, US) observed 0851 UTC 21 April 2019
Temperature: 8.9°C (48°F)
Dewpoint: 2.2°C (36°F) [RH = 63%]
Pressure (altimeter): 29.95 inches Hg (1014.3 mb)
[Sea-level pressure: 1014.0 mb]
Winds: calm
Visibility: 10 or more miles (16+ km)
Ceiling: at least 12,000 feet AGL
Clouds: sky clear below 12,000 feet AGL
Weather: no significant weather observed at this time

METAR text: KSTL 210751Z 00000KT 10SM CLR 09/02 A2995 RMK AO2 SLP138 T00890022
Conditions at: KSTL (ST. LOUIS , MO, US) observed 0751 UTC 21 April 2019
Temperature: 8.9°C (48°F)
Dewpoint: 2.2°C (36°F) [RH = 63%]
Pressure (altimeter): 29.95 inches Hg (1014.3 mb)
[Sea-level pressure: 1013.8 mb]
Winds: calm
Visibility: 10 or more miles (16+ km)
Ceiling: at least 12,000 feet AGL
Clouds: sky clear below 12,000 feet AGL
Weather: no significant weather observed at this time

METAR text: KSTL 210651Z 00000KT 10SM CLR 09/02 A2994 RMK AO2 SLP137 T00890022
Conditions at: KSTL (ST. LOUIS , MO, US) observed 0651 UTC 21 April 2019
Temperature: 8.9°C (48°F)
Dewpoint: 2.2°C (36°F) [RH = 63%]
Pressure (altimeter): 29.94 inches Hg (1014.0 mb)
[Sea-level pressure: 1013.7 mb]
Winds: calm
Visibility: 10 or more miles (16+ km)
Ceiling: at least 12,000 feet AGL
Clouds: sky clear below 12,000 feet AGL
Weather: no significant weather observed at this time

METAR text: KSTL 210551Z 00000KT 10SM CLR 10/02 A2993 RMK AO2 SLP134 T01000022 10183 20089 402060050 53010
Conditions at: KSTL (ST. LOUIS , MO, US) observed 0551 UTC 21 April 2019
Temperature: 10.0°C (50°F)
Dewpoint: 2.2°C (36°F) [RH = 58%]
Pressure (altimeter): 29.93 inches Hg (1013.6 mb)
[Sea-level pressure: 1013.4 mb]
Winds: calm
Visibility: 10 or more miles (16+ km)
Ceiling: at least 12,000 feet AGL
Clouds: sky clear below 12,000 feet AGL
Weather: no significant weather observed at this time

METAR text: KSTL 210451Z 00000KT 9SM CLR 11/02 A2992 RMK AO2 SLP131 T01060017
Conditions at: KSTL (ST. LOUIS , MO, US) observed 0451 UTC 21 April 2019
Temperature: 10.6°C (51°F)
Dewpoint: 1.7°C (35°F) [RH = 54%]
Pressure (altimeter): 29.92 inches Hg (1013.3 mb)
[Sea-level pressure: 1013.1 mb]
Winds: calm
Visibility: 9 miles (14 km)
Ceiling: at least 12,000 feet AGL
Clouds: sky clear below 12,000 feet AGL
Weather: no significant weather observed at this time

METAR text: KSTL 210351Z 00000KT 10SM CLR 11/02 A2991 RMK AO2 SLP126 T01110017
Conditions at: KSTL (ST. LOUIS , MO, US) observed 0351 UTC 21 April 2019
Temperature: 11.1°C (52°F)
Dewpoint: 1.7°C (35°F) [RH = 52%]
Pressure (altimeter): 29.91 inches Hg (1013.0 mb)
[Sea-level pressure: 1012.6 mb]
Winds: calm
Visibility: 10 or more miles (16+ km)
Ceiling: at least 12,000 feet AGL
Clouds: sky clear below 12,000 feet AGL
Weather: no significant weather observed at this time

METAR text: KSTL 210251Z 00000KT 10SM CLR 12/01 A2990 RMK AO2 SLP125 T01220011 53006
Conditions at: KSTL (ST. LOUIS , MO, US) observed 0251 UTC 21 April 2019
Temperature: 12.2°C (54°F)
Dewpoint: 1.1°C (34°F) [RH = 47%]
Pressure (altimeter): 29.90 inches Hg (1012.6 mb)
[Sea-level pressure: 1012.5 mb]
Winds: calm
Visibility: 10 or more miles (16+ km)
Ceiling: at least 12,000 feet AGL
Clouds: sky clear below 12,000 feet AGL
Weather: no significant weather observed at this time

METAR text: KSTL 210151Z 00000KT 10SM CLR 15/00 A2989 RMK AO2 SLP121 T01500000
Conditions at: KSTL (ST. LOUIS , MO, US) observed 0151 UTC 21 April 2019
Temperature: 15.0°C (59°F)
Dewpoint: 0.0°C (32°F) [RH = 36%]
Pressure (altimeter): 29.89 inches Hg (1012.3 mb)
[Sea-level pressure: 1012.1 mb]
Winds: calm
Visibility: 10 or more miles (16+ km)
Ceiling: at least 12,000 feet AGL
Clouds: sky clear below 12,000 feet AGL
Weather: no significant weather observed at this time

METAR text: KSTL 210051Z 31003KT 10SM FEW010 16/M02 A2988 RMK AO2 SLP118 FU FEW010 T01611017
Conditions at: KSTL (ST. LOUIS , MO, US) observed 0051 UTC 21 April 2019
Temperature: 16.1°C (61°F)
Dewpoint: -1.7°C (29°F) [RH = 29%]
Pressure (altimeter): 29.88 inches Hg (1011.9 mb)
[Sea-level pressure: 1011.8 mb]
Winds: from the NW (310 degrees) at 3 MPH (3 knots; 1.5 m/s)
Visibility: 10 or more miles (16+ km)
Ceiling: at least 12,000 feet AGL
Clouds: few clouds at 1000 feet AGL
Weather: no significant weather observed at this time

METAR text: KSTL 202351Z 28008KT 10SM CLR 18/M02 A2988 RMK AO2 SLP118 T01831017 10206 20178 55001
Conditions at: KSTL (ST. LOUIS , MO, US) observed 2351 UTC 20 April 2019
Temperature: 18.3°C (65°F)
Dewpoint: -1.7°C (29°F) [RH = 26%]
Pressure (altimeter): 29.88 inches Hg (1011.9 mb)
[Sea-level pressure: 1011.8 mb]
Winds: from the W (280 degrees) at 9 MPH (8 knots; 4.1 m/s)
Visibility: 10 or more miles (16+ km)
Ceiling: at least 12,000 feet AGL
Clouds: sky clear below 12,000 feet AGL
Weather: no significant weather observed at this time

METAR text: KSTL 202251Z 30009KT 10SM CLR 20/M03 A2988 RMK AO2 SLP116 T02001033
Conditions at: KSTL (ST. LOUIS , MO, US) observed 2251 UTC 20 April 2019
Temperature: 20.0°C (68°F)
Dewpoint: -3.3°C (26°F) [RH = 20%]
Pressure (altimeter): 29.88 inches Hg (1011.9 mb)
[Sea-level pressure: 1011.6 mb]
Winds: from the WNW (300 degrees) at 10 MPH (9 knots; 4.6 m/s)
Visibility: 10 or more miles (16+ km)
Ceiling: at least 12,000 feet AGL
Clouds: sky clear below 12,000 feet AGL
Weather: no significant weather observed at this time

METAR text: KSTL 202151Z 33011KT 10SM CLR 20/M04 A2988 RMK AO2 SLP116 T02001039
Conditions at: KSTL (ST. LOUIS , MO, US) observed 2151 UTC 20 April 2019
Temperature: 20.0°C (68°F)
Dewpoint: -3.9°C (25°F) [RH = 20%]
Pressure (altimeter): 29.88 inches Hg (1011.9 mb)
[Sea-level pressure: 1011.6 mb]
Winds: from the NNW (330 degrees) at 13 MPH (11 knots; 5.7 m/s)
Visibility: 10 or more miles (16+ km)
Ceiling: at least 12,000 feet AGL
Clouds: sky clear below 12,000 feet AGL
Weather: no significant weather observed at this time

METAR text: KSTL 202051Z 31013G19KT 10SM CLR 20/M03 A2988 RMK AO2 SLP116 T02001033 56010
Conditions at: KSTL (ST. LOUIS , MO, US) observed 2051 UTC 20 April 2019
Temperature: 20.0°C (68°F)
Dewpoint: -3.3°C (26°F) [RH = 20%]
Pressure (altimeter): 29.88 inches Hg (1011.9 mb)
[Sea-level pressure: 1011.6 mb]
Winds: from the NW (310 degrees) at 15 MPH (13 knots; 6.7 m/s)
gusting to 22 MPH (19 knots; 9.8 m/s)
Visibility: 10 or more miles (16+ km)
Ceiling: at least 12,000 feet AGL
Clouds: sky clear below 12,000 feet AGL
Weather: no significant weather observed at this time

METAR text: KSTL 201951Z 31012G18KT 10SM CLR 19/M03 A2989 RMK AO2 SLP119 T01941033
Conditions at: KSTL (ST. LOUIS , MO, US) observed 1951 UTC 20 April 2019
Temperature: 19.4°C (67°F)
Dewpoint: -3.3°C (26°F) [RH = 21%]
Pressure (altimeter): 29.89 inches Hg (1012.3 mb)
[Sea-level pressure: 1011.9 mb]
Winds: from the NW (310 degrees) at 14 MPH (12 knots; 6.2 m/s)
gusting to 21 MPH (18 knots; 9.3 m/s)
Visibility: 10 or more miles (16+ km)
Ceiling: at least 12,000 feet AGL
Clouds: sky clear below 12,000 feet AGL
Weather: no significant weather observed at this time

METAR text: KSTL 201851Z 31013G21KT 10SM CLR 19/M03 A2990 RMK AO2 SLP122 T01891028
Conditions at: KSTL (ST. LOUIS , MO, US) observed 1851 UTC 20 April 2019
Temperature: 18.9°C (66°F)
Dewpoint: -2.8°C (27°F) [RH = 23%]
Pressure (altimeter): 29.90 inches Hg (1012.6 mb)
[Sea-level pressure: 1012.2 mb]
Winds: from the NW (310 degrees) at 15 MPH (13 knots; 6.7 m/s)
gusting to 24 MPH (21 knots; 10.8 m/s)
Visibility: 10 or more miles (16+ km)
Ceiling: at least 12,000 feet AGL
Clouds: sky clear below 12,000 feet AGL
Weather: no significant weather observed at this time

METAR text: KSTL 201751Z 33010G18KT 10SM CLR 17/M03 A2991 RMK AO2 SLP128 T01721028 10172 20072 58006
Conditions at: KSTL (ST. LOUIS , MO, US) observed 1751 UTC 20 April 2019
Temperature: 17.2°C (63°F)
Dewpoint: -2.8°C (27°F) [RH = 25%]
Pressure (altimeter): 29.91 inches Hg (1013.0 mb)
[Sea-level pressure: 1012.8 mb]
Winds: from the NNW (330 degrees) at 12 MPH (10 knots; 5.1 m/s)
gusting to 21 MPH (18 knots; 9.3 m/s)
Visibility: 10 or more miles (16+ km)
Ceiling: at least 12,000 feet AGL
Clouds: sky clear below 12,000 feet AGL
Weather: no significant weather observed at this time

METAR text: KSTL 201651Z 32010G18KT 10SM CLR 16/M02 A2992 RMK AO2 SLP132 T01611022
Conditions at: KSTL (ST. LOUIS , MO, US) observed 1651 UTC 20 April 2019
Temperature: 16.1°C (61°F)
Dewpoint: -2.2°C (28°F) [RH = 28%]
Pressure (altimeter): 29.92 inches Hg (1013.3 mb)
[Sea-level pressure: 1013.2 mb]
Winds: from the NW (320 degrees) at 12 MPH (10 knots; 5.1 m/s)
gusting to 21 MPH (18 knots; 9.3 m/s)
Visibility: 10 or more miles (16+ km)
Ceiling: at least 12,000 feet AGL
Clouds: sky clear below 12,000 feet AGL
Weather: no significant weather observed at this time

METAR text: KSTL 201551Z 34012G20KT 10SM CLR 14/M03 A2993 RMK AO2 SLP135 T01391028
Conditions at: KSTL (ST. LOUIS , MO, US) observed 1551 UTC 20 April 2019
Temperature: 13.9°C (57°F)
Dewpoint: -2.8°C (27°F) [RH = 31%]
Pressure (altimeter): 29.93 inches Hg (1013.6 mb)
[Sea-level pressure: 1013.5 mb]
Winds: from the NNW (340 degrees) at 14 MPH (12 knots; 6.2 m/s)
gusting to 23 MPH (20 knots; 10.3 m/s)
Visibility: 10 or more miles (16+ km)
Ceiling: at least 12,000 feet AGL
Clouds: sky clear below 12,000 feet AGL
Weather: no significant weather observed at this time

METAR text: KSTL 201451Z 34012G20KT 10SM CLR 12/M03 A2993 RMK AO2 SLP136 T01171028 51020
Conditions at: KSTL (ST. LOUIS , MO, US) observed 1451 UTC 20 April 2019
Temperature: 11.7°C (53°F)
Dewpoint: -2.8°C (27°F) [RH = 36%]
Pressure (altimeter): 29.93 inches Hg (1013.6 mb)
[Sea-level pressure: 1013.6 mb]
Winds: from the NNW (340 degrees) at 14 MPH (12 knots; 6.2 m/s)
gusting to 23 MPH (20 knots; 10.3 m/s)
Visibility: 10 or more miles (16+ km)
Ceiling: at least 12,000 feet AGL
Clouds: sky clear below 12,000 feet AGL
Weather: no significant weather observed at this time

Forecast for: KSTL (ST. LOUIS , MO, US)
Text: KSTL 212335Z 2200/2306 14012KT P6SM SCT250
Forecast period: 0000 to 1600 UTC 22 April 2019
Forecast type: FROM: standard forecast or significant change
Winds: from the SE (140 degrees) at 14 MPH (12 knots; 6.2 m/s)
Visibility: 6 or more miles 10+ km)
Ceiling: at least 12,000 feet AGL
Clouds: scattered clouds at 25000 feet AGL
Weather: no significant weather forecast for this period
Text: FM221600 18012G18KT P6SM SCT250
Forecast period: 1600 to 2300 UTC 22 April 2019
Forecast type: FROM: standard forecast or significant change
Winds: from the S (180 degrees) at 14 MPH (12 knots; 6.2 m/s)
gusting to 21 MPH (18 knots; 9.3 m/s)
Visibility: 6 or more miles 10+ km)
Ceiling: at least 12,000 feet AGL
Clouds: scattered clouds at 25000 feet AGL
Weather: no significant weather forecast for this period
Text: FM222300 20011KT P6SM BKN090
Forecast period: 2300 UTC 22 April 2019 to 0600 UTC 23 April 2019
Forecast type: FROM: standard forecast or significant change
Winds: from the SSW (200 degrees) at 13 MPH (11 knots; 5.7 m/s)
Visibility: 6 or more miles 10+ km)
Ceiling: 9000 feet AGL
Clouds: broken clouds at 9000 feet AGL
Weather: no significant weather forecast for this period